Parnamirim, Brazil
Current Conditions -  °F | °C
As of 3:00 AM on Friday 19 Dec 2014 (Local Time) from SBNT Reporting Station
Rain Showers Rain Showers  
Wind Chill: 73°   Ceiling: 4900
Heat Index: 73°   Visibility: 6mi
Dew Point: 72°   Wind: 7mph
Humidity: 94%   Direction: 100°E
Pressure: NA   Gusts: NA
Location:  5.92°S, 35.26°W
Report Text: SBNT 190600Z 10006KT 9999 VCSH SCT019 FEW030TCU BKN049 23/22 Q1011
Loading
Personal Weather Stations






























Interactive Weather Map New forecast layout! Learn more

10-Day Weather Forecast

Advertisements
Track Severe Weather on mobile